sensor_id;sensor_type;location;lat;lon;timestamp;P1;durP1;ratioP1;P2;durP2;ratioP2
11807;SDS011;5961;42.640;23.380;2023-08-01T00:00:39;3.10;;;2.50;;
11807;SDS011;5961;42.640;23.380;2023-08-01T00:03:06;2.63;;;2.33;;
11807;SDS011;5961;42.640;23.380;2023-08-01T00:05:33;2.70;;;2.50;;
11807;SDS011;5961;42.640;23.380;2023-08-01T00:07:59;3.33;;;2.30;;
11807;SDS011;5961;42.640;23.380;2023-08-01T00:10:29;5.07;;;2.85;;
11807;SDS011;5961;42.640;23.380;2023-08-01T00:12:55;2.80;;;2.60;;
11807;SDS011;5961;42.640;23.380;2023-08-01T00:15:22;4.45;;;2.60;;
11807;SDS011;5961;42.640;23.380;2023-08-01T00:17:49;2.85;;;2.65;;
11807;SDS011;5961;42.640;23.380;2023-08-01T00:20:15;4.18;;;2.70;;
11807;SDS011;5961;42.640;23.380;2023-08-01T00:22:42;2.90;;;2.60;;
11807;SDS011;5961;42.640;23.380;2023-08-01T00:25:09;2.90;;;2.40;;
11807;SDS011;5961;42.640;23.380;2023-08-01T00:27:37;2.70;;;2.50;;
11807;SDS011;5961;42.640;23.380;2023-08-01T00:30:04;2.80;;;2.60;;
11807;SDS011;5961;42.640;23.380;2023-08-01T00:32:32;2.88;;;2.40;;
11807;SDS011;5961;42.640;23.380;2023-08-01T00:34:58;2.80;;;2.60;;
11807;SDS011;5961;42.640;23.380;2023-08-01T00:37:25;2.60;;;2.40;;
11807;SDS011;5961;42.640;23.380;2023-08-01T00:39:52;5.47;;;2.72;;
11807;SDS011;5961;42.640;23.380;2023-08-01T00:42:18;3.35;;;2.60;;
11807;SDS011;5961;42.640;23.380;2023-08-01T00:44:46;3.10;;;2.90;;
11807;SDS011;5961;42.640;23.380;2023-08-01T00:47:14;3.25;;;2.90;;
11807;SDS011;5961;42.640;23.380;2023-08-01T00:49:41;2.95;;;2.60;;
11807;SDS011;5961;42.640;23.380;2023-08-01T00:52:08;4.32;;;2.72;;
11807;SDS011;5961;42.640;23.380;2023-08-01T00:54:36;3.78;;;2.67;;
11807;SDS011;5961;42.640;23.380;2023-08-01T00:57:03;2.90;;;2.65;;
11807;SDS011;5961;42.640;23.380;2023-08-01T00:59:30;3.78;;;3.10;;
11807;SDS011;5961;42.640;23.380;2023-08-01T01:01:59;3.28;;;2.97;;
11807;SDS011;5961;42.640;23.380;2023-08-01T01:04:26;3.47;;;2.85;;
11807;SDS011;5961;42.640;23.380;2023-08-01T01:06:56;3.38;;;3.05;;
11807;SDS011;5961;42.640;23.380;2023-08-01T01:09:27;2.92;;;2.53;;
11807;SDS011;5961;42.640;23.380;2023-08-01T01:11:57;3.40;;;3.10;;
11807;SDS011;5961;42.640;23.380;2023-08-01T01:14:24;5.07;;;2.72;;
11807;SDS011;5961;42.640;23.380;2023-08-01T01:16:51;4.10;;;2.72;;
11807;SDS011;5961;42.640;23.380;2023-08-01T01:19:19;3.28;;;2.97;;
11807;SDS011;5961;42.640;23.380;2023-08-01T01:21:47;3.85;;;2.50;;
11807;SDS011;5961;42.640;23.380;2023-08-01T01:24:14;3.17;;;2.63;;
11807;SDS011;5961;42.640;23.380;2023-08-01T01:26:44;3.45;;;2.90;;
11807;SDS011;5961;42.640;23.380;2023-08-01T01:29:12;2.97;;;2.60;;
11807;SDS011;5961;42.640;23.380;2023-08-01T01:31:39;2.70;;;2.50;;
11807;SDS011;5961;42.640;23.380;2023-08-01T01:34:07;3.58;;;3.20;;
11807;SDS011;5961;42.640;23.380;2023-08-01T01:36:35;3.55;;;3.30;;
11807;SDS011;5961;42.640;23.380;2023-08-01T01:39:03;3.30;;;3.00;;
11807;SDS011;5961;42.640;23.380;2023-08-01T01:41:30;5.60;;;2.85;;
11807;SDS011;5961;42.640;23.380;2023-08-01T01:43:57;3.67;;;2.85;;
11807;SDS011;5961;42.640;23.380;2023-08-01T01:46:23;3.88;;;3.40;;
11807;SDS011;5961;42.640;23.380;2023-08-01T01:48:50;4.75;;;4.07;;
11807;SDS011;5961;42.640;23.380;2023-08-01T01:51:17;5.78;;;3.72;;
11807;SDS011;5961;42.640;23.380;2023-08-01T01:53:43;4.15;;;3.75;;
11807;SDS011;5961;42.640;23.380;2023-08-01T01:56:11;6.97;;;3.92;;
11807;SDS011;5961;42.640;23.380;2023-08-01T01:58:38;3.95;;;3.45;;
11807;SDS011;5961;42.640;23.380;2023-08-01T02:01:05;3.88;;;3.40;;
11807;SDS011;5961;42.640;23.380;2023-08-01T02:03:31;3.80;;;3.30;;
11807;SDS011;5961;42.640;23.380;2023-08-01T02:05:58;3.72;;;2.97;;
11807;SDS011;5961;42.640;23.380;2023-08-01T02:08:25;4.25;;;3.20;;
11807;SDS011;5961;42.640;23.380;2023-08-01T02:10:51;3.28;;;2.80;;
11807;SDS011;5961;42.640;23.380;2023-08-01T02:13:21;3.58;;;3.20;;
11807;SDS011;5961;42.640;23.380;2023-08-01T02:15:48;2.90;;;2.70;;
11807;SDS011;5961;42.640;23.380;2023-08-01T02:18:14;4.97;;;3.10;;
11807;SDS011;5961;42.640;23.380;2023-08-01T02:20:41;4.45;;;3.20;;
11807;SDS011;5961;42.640;23.380;2023-08-01T02:23:08;3.78;;;3.47;;
11807;SDS011;5961;42.640;23.380;2023-08-01T02:25:37;3.38;;;3.08;;
11807;SDS011;5961;42.640;23.380;2023-08-01T02:28:04;3.67;;;3.33;;
11807;SDS011;5961;42.640;23.380;2023-08-01T02:30:32;3.15;;;2.95;;
11807;SDS011;5961;42.640;23.380;2023-08-01T02:32:59;4.15;;;3.40;;
11807;SDS011;5961;42.640;23.380;2023-08-01T02:35:26;4.25;;;3.30;;
11807;SDS011;5961;42.640;23.380;2023-08-01T02:37:53;4.28;;;2.92;;
11807;SDS011;5961;42.640;23.380;2023-08-01T02:40:20;3.78;;;3.40;;
11807;SDS011;5961;42.640;23.380;2023-08-01T02:42:47;3.65;;;3.20;;
11807;SDS011;5961;42.640;23.380;2023-08-01T02:45:14;3.70;;;3.40;;
11807;SDS011;5961;42.640;23.380;2023-08-01T02:47:42;3.58;;;3.28;;
11807;SDS011;5961;42.640;23.380;2023-08-01T02:50:09;3.65;;;3.35;;
11807;SDS011;5961;42.640;23.380;2023-08-01T02:52:36;3.42;;;3.13;;
11807;SDS011;5961;42.640;23.380;2023-08-01T02:55:04;5.22;;;3.53;;
11807;SDS011;5961;42.640;23.380;2023-08-01T02:57:31;3.50;;;2.90;;
11807;SDS011;5961;42.640;23.380;2023-08-01T02:59:58;3.50;;;3.20;;
11807;SDS011;5961;42.640;23.380;2023-08-01T03:02:25;6.63;;;3.22;;
11807;SDS011;5961;42.640;23.380;2023-08-01T03:04:54;3.55;;;3.25;;
11807;SDS011;5961;42.640;23.380;2023-08-01T03:07:20;3.72;;;3.42;;
11807;SDS011;5961;42.640;23.380;2023-08-01T03:09:47;4.18;;;3.53;;
11807;SDS011;5961;42.640;23.380;2023-08-01T03:12:14;6.43;;;3.78;;
11807;SDS011;5961;42.640;23.380;2023-08-01T03:14:41;4.43;;;3.78;;
11807;SDS011;5961;42.640;23.380;2023-08-01T03:17:09;4.75;;;3.50;;
11807;SDS011;5961;42.640;23.380;2023-08-01T03:19:35;4.95;;;3.50;;
11807;SDS011;5961;42.640;23.380;2023-08-01T03:22:04;4.25;;;3.70;;
11807;SDS011;5961;42.640;23.380;2023-08-01T03:24:30;5.40;;;3.50;;
11807;SDS011;5961;42.640;23.380;2023-08-01T03:26:57;3.65;;;3.35;;
11807;SDS011;5961;42.640;23.380;2023-08-01T03:29:24;4.05;;;3.50;;
11807;SDS011;5961;42.640;23.380;2023-08-01T03:31:50;3.78;;;3.38;;
11807;SDS011;5961;42.640;23.380;2023-08-01T03:34:17;5.72;;;3.88;;
11807;SDS011;5961;42.640;23.380;2023-08-01T03:36:44;4.28;;;3.88;;
11807;SDS011;5961;42.640;23.380;2023-08-01T03:39:12;5.90;;;4.10;;
11807;SDS011;5961;42.640;23.380;2023-08-01T03:41:39;6.53;;;4.45;;
11807;SDS011;5961;42.640;23.380;2023-08-01T03:44:06;5.45;;;4.07;;
11807;SDS011;5961;42.640;23.380;2023-08-01T03:46:33;4.38;;;3.97;;
11807;SDS011;5961;42.640;23.380;2023-08-01T03:48:59;4.32;;;3.90;;
11807;SDS011;5961;42.640;23.380;2023-08-01T03:51:26;6.05;;;5.20;;
11807;SDS011;5961;42.640;23.380;2023-08-01T03:53:53;6.85;;;3.60;;
11807;SDS011;5961;42.640;23.380;2023-08-01T03:56:21;6.88;;;4.00;;
11807;SDS011;5961;42.640;23.380;2023-08-01T03:58:47;5.32;;;3.92;;
11807;SDS011;5961;42.640;23.380;2023-08-01T04:01:14;5.70;;;3.78;;
11807;SDS011;5961;42.640;23.380;2023-08-01T04:03:41;5.45;;;4.70;;
11807;SDS011;5961;42.640;23.380;2023-08-01T04:06:07;4.82;;;4.40;;
11807;SDS011;5961;42.640;23.380;2023-08-01T04:08:35;4.60;;;4.20;;
11807;SDS011;5961;42.640;23.380;2023-08-01T04:11:02;8.25;;;3.50;;
11807;SDS011;5961;42.640;23.380;2023-08-01T04:13:32;4.82;;;3.72;;
11807;SDS011;5961;42.640;23.380;2023-08-01T04:15:59;4.82;;;4.35;;
11807;SDS011;5961;42.640;23.380;2023-08-01T04:18:26;4.68;;;4.28;;
11807;SDS011;5961;42.640;23.380;2023-08-01T04:20:52;5.90;;;4.33;;
11807;SDS011;5961;42.640;23.380;2023-08-01T04:23:19;5.43;;;4.30;;
11807;SDS011;5961;42.640;23.380;2023-08-01T04:25:46;6.47;;;5.30;;
11807;SDS011;5961;42.640;23.380;2023-08-01T04:28:12;6.83;;;5.43;;
11807;SDS011;5961;42.640;23.380;2023-08-01T04:30:40;6.00;;;5.40;;
11807;SDS011;5961;42.640;23.380;2023-08-01T04:33:07;6.23;;;5.17;;
11807;SDS011;5961;42.640;23.380;2023-08-01T04:35:34;7.10;;;5.53;;
11807;SDS011;5961;42.640;23.380;2023-08-01T04:38:00;6.20;;;5.60;;
11807;SDS011;5961;42.640;23.380;2023-08-01T04:40:27;6.00;;;5.40;;
11807;SDS011;5961;42.640;23.380;2023-08-01T04:42:54;9.00;;;6.03;;
11807;SDS011;5961;42.640;23.380;2023-08-01T04:45:21;6.13;;;5.53;;
11807;SDS011;5961;42.640;23.380;2023-08-01T04:47:49;6.80;;;6.03;;
11807;SDS011;5961;42.640;23.380;2023-08-01T04:50:16;13.93;;;5.90;;
11807;SDS011;5961;42.640;23.380;2023-08-01T04:52:43;8.57;;;5.50;;
11807;SDS011;5961;42.640;23.380;2023-08-01T04:55:09;8.57;;;5.97;;
11807;SDS011;5961;42.640;23.380;2023-08-01T04:57:36;5.87;;;5.27;;
11807;SDS011;5961;42.640;23.380;2023-08-01T05:00:03;7.97;;;5.20;;
11807;SDS011;5961;42.640;23.380;2023-08-01T05:02:30;5.33;;;4.83;;
11807;SDS011;5961;42.640;23.380;2023-08-01T05:04:59;5.90;;;4.97;;
11807;SDS011;5961;42.640;23.380;2023-08-01T05:07:25;4.83;;;4.30;;
11807;SDS011;5961;42.640;23.380;2023-08-01T05:09:52;5.10;;;4.47;;
11807;SDS011;5961;42.640;23.380;2023-08-01T05:12:19;4.97;;;3.60;;
11807;SDS011;5961;42.640;23.380;2023-08-01T05:14:45;5.43;;;4.00;;
11807;SDS011;5961;42.640;23.380;2023-08-01T05:17:12;6.37;;;3.90;;
11807;SDS011;5961;42.640;23.380;2023-08-01T05:19:39;4.30;;;3.90;;
11807;SDS011;5961;42.640;23.380;2023-08-01T05:22:07;4.20;;;3.80;;
11807;SDS011;5961;42.640;23.380;2023-08-01T05:24:33;4.90;;;3.73;;
11807;SDS011;5961;42.640;23.380;2023-08-01T05:27:00;5.60;;;4.03;;
11807;SDS011;5961;42.640;23.380;2023-08-01T05:29:27;4.20;;;3.80;;
11807;SDS011;5961;42.640;23.380;2023-08-01T05:31:53;7.43;;;3.77;;
11807;SDS011;5961;42.640;23.380;2023-08-01T05:34:20;6.60;;;3.97;;
11807;SDS011;5961;42.640;23.380;2023-08-01T05:36:47;5.67;;;4.20;;
11807;SDS011;5961;42.640;23.380;2023-08-01T05:39:15;6.33;;;4.60;;
11807;SDS011;5961;42.640;23.380;2023-08-01T05:41:42;5.95;;;4.07;;
11807;SDS011;5961;42.640;23.380;2023-08-01T05:44:08;8.40;;;7.22;;
11807;SDS011;5961;42.640;23.380;2023-08-01T05:46:35;6.75;;;4.22;;
11807;SDS011;5961;42.640;23.380;2023-08-01T05:49:02;5.53;;;4.10;;
11807;SDS011;5961;42.640;23.380;2023-08-01T05:51:28;5.60;;;4.47;;
11807;SDS011;5961;42.640;23.380;2023-08-01T05:53:55;5.00;;;4.50;;
11807;SDS011;5961;42.640;23.380;2023-08-01T05:56:23;7.85;;;4.28;;
11807;SDS011;5961;42.640;23.380;2023-08-01T05:58:50;6.10;;;4.00;;
11807;SDS011;5961;42.640;23.380;2023-08-01T06:01:17;5.87;;;4.87;;
11807;SDS011;5961;42.640;23.380;2023-08-01T06:03:44;7.75;;;4.10;;
11807;SDS011;5961;42.640;23.380;2023-08-01T06:06:11;8.10;;;4.07;;
11807;SDS011;5961;42.640;23.380;2023-08-01T06:08:38;6.40;;;4.13;;
11807;SDS011;5961;42.640;23.380;2023-08-01T06:11:04;6.95;;;4.25;;
11807;SDS011;5961;42.640;23.380;2023-08-01T06:13:33;5.28;;;4.78;;
11807;SDS011;5961;42.640;23.380;2023-08-01T06:15:59;6.30;;;4.60;;
11807;SDS011;5961;42.640;23.380;2023-08-01T06:18:26;7.18;;;4.65;;
11807;SDS011;5961;42.640;23.380;2023-08-01T06:20:53;8.05;;;4.20;;
11807;SDS011;5961;42.640;23.380;2023-08-01T06:23:20;4.22;;;3.80;;
11807;SDS011;5961;42.640;23.380;2023-08-01T06:25:46;4.28;;;3.67;;
11807;SDS011;5961;42.640;23.380;2023-08-01T06:28:13;4.72;;;3.80;;
11807;SDS011;5961;42.640;23.380;2023-08-01T06:30:41;4.03;;;3.63;;
11807;SDS011;5961;42.640;23.380;2023-08-01T06:33:08;4.88;;;3.55;;
11807;SDS011;5961;42.640;23.380;2023-08-01T06:35:34;5.32;;;3.42;;
11807;SDS011;5961;42.640;23.380;2023-08-01T06:38:01;8.88;;;4.25;;
11807;SDS011;5961;42.640;23.380;2023-08-01T06:40:28;7.22;;;3.95;;
11807;SDS011;5961;42.640;23.380;2023-08-01T06:42:54;4.68;;;4.20;;
11807;SDS011;5961;42.640;23.380;2023-08-01T06:45:21;6.45;;;4.60;;
11807;SDS011;5961;42.640;23.380;2023-08-01T06:47:49;6.65;;;4.28;;
11807;SDS011;5961;42.640;23.380;2023-08-01T06:50:16;6.32;;;4.15;;
11807;SDS011;5961;42.640;23.380;2023-08-01T06:52:43;4.45;;;3.90;;
11807;SDS011;5961;42.640;23.380;2023-08-01T06:55:09;4.20;;;3.80;;
11807;SDS011;5961;42.640;23.380;2023-08-01T06:57:37;8.32;;;5.97;;
11807;SDS011;5961;42.640;23.380;2023-08-01T07:00:04;6.80;;;5.20;;
11807;SDS011;5961;42.640;23.380;2023-08-01T07:02:32;8.68;;;5.43;;
11807;SDS011;5961;42.640;23.380;2023-08-01T07:05:00;8.07;;;5.25;;
11807;SDS011;5961;42.640;23.380;2023-08-01T07:07:26;7.88;;;5.03;;
11807;SDS011;5961;42.640;23.380;2023-08-01T07:09:53;9.05;;;4.90;;
11807;SDS011;5961;42.640;23.380;2023-08-01T07:12:20;7.45;;;5.07;;
11807;SDS011;5961;42.640;23.380;2023-08-01T07:14:46;13.15;;;5.40;;
11807;SDS011;5961;42.640;23.380;2023-08-01T07:17:13;6.93;;;4.55;;
11807;SDS011;5961;42.640;23.380;2023-08-01T07:19:40;11.40;;;5.28;;
11807;SDS011;5961;42.640;23.380;2023-08-01T07:22:08;9.57;;;5.15;;
11807;SDS011;5961;42.640;23.380;2023-08-01T07:24:35;8.98;;;5.18;;
11807;SDS011;5961;42.640;23.380;2023-08-01T07:27:02;9.52;;;5.40;;
11807;SDS011;5961;42.640;23.380;2023-08-01T07:29:29;6.65;;;4.70;;
11807;SDS011;5961;42.640;23.380;2023-08-01T07:31:55;8.35;;;4.97;;
11807;SDS011;5961;42.640;23.380;2023-08-01T07:34:22;7.75;;;4.35;;
11807;SDS011;5961;42.640;23.380;2023-08-01T07:36:49;11.80;;;6.07;;
11807;SDS011;5961;42.640;23.380;2023-08-01T07:39:17;8.88;;;5.50;;
11807;SDS011;5961;42.640;23.380;2023-08-01T07:41:43;6.70;;;4.68;;
11807;SDS011;5961;42.640;23.380;2023-08-01T07:44:10;6.13;;;5.20;;
11807;SDS011;5961;42.640;23.380;2023-08-01T07:46:37;9.05;;;5.13;;
11807;SDS011;5961;42.640;23.380;2023-08-01T07:49:04;7.93;;;4.63;;
11807;SDS011;5961;42.640;23.380;2023-08-01T07:51:30;7.07;;;4.55;;
11807;SDS011;5961;42.640;23.380;2023-08-01T07:53:58;6.53;;;4.45;;
11807;SDS011;5961;42.640;23.380;2023-08-01T07:56:27;9.77;;;5.18;;
11807;SDS011;5961;42.640;23.380;2023-08-01T07:58:54;7.53;;;5.13;;
11807;SDS011;5961;42.640;23.380;2023-08-01T08:01:20;5.03;;;4.53;;
11807;SDS011;5961;42.640;23.380;2023-08-01T08:03:47;6.18;;;5.05;;
11807;SDS011;5961;42.640;23.380;2023-08-01T08:06:14;5.95;;;4.55;;
11807;SDS011;5961;42.640;23.380;2023-08-01T08:08:41;20.50;;;13.02;;
11807;SDS011;5961;42.640;23.380;2023-08-01T08:11:07;6.88;;;5.90;;
11807;SDS011;5961;42.640;23.380;2023-08-01T08:13:35;5.50;;;4.72;;
11807;SDS011;5961;42.640;23.380;2023-08-01T08:16:02;6.75;;;4.82;;
11807;SDS011;5961;42.640;23.380;2023-08-01T08:18:29;6.47;;;4.45;;
11807;SDS011;5961;42.640;23.380;2023-08-01T08:20:59;7.38;;;5.05;;
11807;SDS011;5961;42.640;23.380;2023-08-01T08:23:25;9.63;;;5.35;;
11807;SDS011;5961;42.640;23.380;2023-08-01T08:25:52;6.80;;;4.95;;
11807;SDS011;5961;42.640;23.380;2023-08-01T08:28:27;5.25;;;4.75;;
11807;SDS011;5961;42.640;23.380;2023-08-01T08:30:56;9.90;;;5.10;;
11807;SDS011;5961;42.640;23.380;2023-08-01T08:33:23;10.48;;;5.40;;
11807;SDS011;5961;42.640;23.380;2023-08-01T08:35:50;7.50;;;5.05;;
11807;SDS011;5961;42.640;23.380;2023-08-01T08:38:16;9.80;;;4.47;;
11807;SDS011;5961;42.640;23.380;2023-08-01T08:40:47;6.10;;;4.72;;
11807;SDS011;5961;42.640;23.380;2023-08-01T08:43:22;16.58;;;5.75;;
11807;SDS011;5961;42.640;23.380;2023-08-01T08:45:49;9.18;;;4.82;;
11807;SDS011;5961;42.640;23.380;2023-08-01T08:48:20;7.88;;;4.10;;
11807;SDS011;5961;42.640;23.380;2023-08-01T08:50:48;6.53;;;4.22;;
11807;SDS011;5961;42.640;23.380;2023-08-01T08:53:16;7.70;;;4.82;;
11807;SDS011;5961;42.640;23.380;2023-08-01T08:55:43;12.07;;;4.55;;
11807;SDS011;5961;42.640;23.380;2023-08-01T08:58:10;9.05;;;4.10;;
11807;SDS011;5961;42.640;23.380;2023-08-01T09:00:37;5.65;;;4.05;;
11807;SDS011;5961;42.640;23.380;2023-08-01T09:03:03;7.15;;;4.63;;
11807;SDS011;5961;42.640;23.380;2023-08-01T09:05:33;8.07;;;4.63;;
11807;SDS011;5961;42.640;23.380;2023-08-01T09:08:04;6.53;;;4.30;;
11807;SDS011;5961;42.640;23.380;2023-08-01T09:10:33;9.27;;;4.40;;
11807;SDS011;5961;42.640;23.380;2023-08-01T09:13:00;4.85;;;4.03;;
11807;SDS011;5961;42.640;23.380;2023-08-01T09:15:27;9.43;;;3.95;;
11807;SDS011;5961;42.640;23.380;2023-08-01T09:17:55;7.20;;;4.32;;
11807;SDS011;5961;42.640;23.380;2023-08-01T09:20:26;6.88;;;4.47;;
11807;SDS011;5961;42.640;23.380;2023-08-01T09:22:54;4.47;;;4.05;;
11807;SDS011;5961;42.640;23.380;2023-08-01T09:25:30;4.97;;;4.38;;
11807;SDS011;5961;42.640;23.380;2023-08-01T09:27:58;6.55;;;5.10;;
11807;SDS011;5961;42.640;23.380;2023-08-01T09:30:25;6.32;;;4.47;;
11807;SDS011;5961;42.640;23.380;2023-08-01T09:32:53;6.78;;;4.20;;
11807;SDS011;5961;42.640;23.380;2023-08-01T09:35:20;5.63;;;4.10;;
11807;SDS011;5961;42.640;23.380;2023-08-01T09:37:47;9.82;;;4.85;;
11807;SDS011;5961;42.640;23.380;2023-08-01T09:40:16;5.05;;;4.55;;
11807;SDS011;5961;42.640;23.380;2023-08-01T09:42:43;5.68;;;4.65;;
11807;SDS011;5961;42.640;23.380;2023-08-01T09:45:11;6.65;;;4.57;;
11807;SDS011;5961;42.640;23.380;2023-08-01T09:47:40;5.72;;;4.88;;
11807;SDS011;5961;42.640;23.380;2023-08-01T09:50:08;10.93;;;5.55;;
11807;SDS011;5961;42.640;23.380;2023-08-01T09:52:36;7.57;;;5.03;;
11807;SDS011;5961;42.640;23.380;2023-08-01T09:55:03;6.32;;;4.07;;
11807;SDS011;5961;42.640;23.380;2023-08-01T09:57:31;7.60;;;4.60;;
11807;SDS011;5961;42.640;23.380;2023-08-01T10:00:01;8.02;;;5.00;;
11807;SDS011;5961;42.640;23.380;2023-08-01T10:02:29;13.73;;;6.65;;
11807;SDS011;5961;42.640;23.380;2023-08-01T10:04:58;6.82;;;4.85;;
11807;SDS011;5961;42.640;23.380;2023-08-01T10:07:28;7.53;;;4.65;;
11807;SDS011;5961;42.640;23.380;2023-08-01T10:09:58;6.00;;;4.30;;
11807;SDS011;5961;42.640;23.380;2023-08-01T10:12:25;5.20;;;4.75;;
11807;SDS011;5961;42.640;23.380;2023-08-01T10:14:54;5.43;;;4.35;;
11807;SDS011;5961;42.640;23.380;2023-08-01T10:17:22;4.75;;;4.35;;
11807;SDS011;5961;42.640;23.380;2023-08-01T10:19:51;6.15;;;4.80;;
11807;SDS011;5961;42.640;23.380;2023-08-01T10:22:21;7.13;;;5.30;;
11807;SDS011;5961;42.640;23.380;2023-08-01T10:24:48;6.03;;;5.07;;
11807;SDS011;5961;42.640;23.380;2023-08-01T10:27:18;5.55;;;4.65;;
11807;SDS011;5961;42.640;23.380;2023-08-01T10:29:56;6.00;;;4.85;;
11807;SDS011;5961;42.640;23.380;2023-08-01T10:32:27;7.13;;;4.40;;
11807;SDS011;5961;42.640;23.380;2023-08-01T10:34:55;6.78;;;4.80;;
11807;SDS011;5961;42.640;23.380;2023-08-01T10:37:22;6.75;;;4.55;;
11807;SDS011;5961;42.640;23.380;2023-08-01T10:39:55;8.68;;;4.47;;
11807;SDS011;5961;42.640;23.380;2023-08-01T10:42:23;7.00;;;4.97;;
11807;SDS011;5961;42.640;23.380;2023-08-01T10:44:50;5.72;;;4.38;;
11807;SDS011;5961;42.640;23.380;2023-08-01T10:47:26;7.03;;;5.60;;
11807;SDS011;5961;42.640;23.380;2023-08-01T10:49:53;6.18;;;4.38;;
11807;SDS011;5961;42.640;23.380;2023-08-01T10:52:20;7.43;;;4.53;;
11807;SDS011;5961;42.640;23.380;2023-08-01T10:54:55;6.22;;;4.60;;
11807;SDS011;5961;42.640;23.380;2023-08-01T10:57:24;5.07;;;4.32;;
11807;SDS011;5961;42.640;23.380;2023-08-01T10:59:51;7.35;;;4.45;;
11807;SDS011;5961;42.640;23.380;2023-08-01T11:02:22;5.95;;;4.53;;
11807;SDS011;5961;42.640;23.380;2023-08-01T11:04:57;7.38;;;5.20;;
11807;SDS011;5961;42.640;23.380;2023-08-01T11:07:24;6.68;;;4.57;;
11807;SDS011;5961;42.640;23.380;2023-08-01T11:10:03;4.50;;;4.20;;
11807;SDS011;5961;42.640;23.380;2023-08-01T11:12:33;7.03;;;4.97;;
11807;SDS011;5961;42.640;23.380;2023-08-01T11:15:00;5.40;;;4.90;;
11807;SDS011;5961;42.640;23.380;2023-08-01T11:17:28;6.78;;;4.05;;
11807;SDS011;5961;42.640;23.380;2023-08-01T11:20:01;5.22;;;4.38;;
11807;SDS011;5961;42.640;23.380;2023-08-01T11:22:29;8.88;;;5.18;;
11807;SDS011;5961;42.640;23.380;2023-08-01T11:24:56;5.15;;;4.65;;
11807;SDS011;5961;42.640;23.380;2023-08-01T11:27:24;5.00;;;4.50;;
11807;SDS011;5961;42.640;23.380;2023-08-01T11:29:51;5.25;;;4.75;;
11807;SDS011;5961;42.640;23.380;2023-08-01T11:32:17;5.85;;;4.45;;
11807;SDS011;5961;42.640;23.380;2023-08-01T11:34:46;6.68;;;4.30;;
11807;SDS011;5961;42.640;23.380;2023-08-01T11:37:15;6.55;;;5.95;;
11807;SDS011;5961;42.640;23.380;2023-08-01T11:39:45;6.22;;;5.15;;
11807;SDS011;5961;42.640;23.380;2023-08-01T11:42:14;4.38;;;3.97;;
11807;SDS011;5961;42.640;23.380;2023-08-01T11:44:42;8.35;;;4.47;;
11807;SDS011;5961;42.640;23.380;2023-08-01T11:47:10;7.97;;;5.13;;
11807;SDS011;5961;42.640;23.380;2023-08-01T11:49:38;9.25;;;5.45;;
11807;SDS011;5961;42.640;23.380;2023-08-01T11:52:06;8.20;;;6.60;;
11807;SDS011;5961;42.640;23.380;2023-08-01T11:54:44;7.10;;;5.68;;
11807;SDS011;5961;42.640;23.380;2023-08-01T11:57:11;5.45;;;4.95;;
11807;SDS011;5961;42.640;23.380;2023-08-01T11:59:45;9.13;;;5.00;;
11807;SDS011;5961;42.640;23.380;2023-08-01T12:02:20;5.93;;;5.43;;
11807;SDS011;5961;42.640;23.380;2023-08-01T12:04:47;6.72;;;4.78;;
11807;SDS011;5961;42.640;23.380;2023-08-01T12:07:14;5.10;;;4.40;;
11807;SDS011;5961;42.640;23.380;2023-08-01T12:09:41;7.65;;;5.00;;
11807;SDS011;5961;42.640;23.380;2023-08-01T12:12:09;5.35;;;4.85;;
11807;SDS011;5961;42.640;23.380;2023-08-01T12:14:39;6.72;;;4.25;;
11807;SDS011;5961;42.640;23.380;2023-08-01T12:17:06;5.32;;;4.70;;
11807;SDS011;5961;42.640;23.380;2023-08-01T12:19:33;5.55;;;4.85;;
11807;SDS011;5961;42.640;23.380;2023-08-01T12:22:00;5.28;;;4.32;;
11807;SDS011;5961;42.640;23.380;2023-08-01T12:24:26;7.57;;;5.00;;
11807;SDS011;5961;42.640;23.380;2023-08-01T12:26:53;6.88;;;4.55;;
11807;SDS011;5961;42.640;23.380;2023-08-01T12:29:21;8.30;;;4.40;;
11807;SDS011;5961;42.640;23.380;2023-08-01T12:31:48;4.82;;;4.43;;
11807;SDS011;5961;42.640;23.380;2023-08-01T12:34:14;6.55;;;4.15;;
11807;SDS011;5961;42.640;23.380;2023-08-01T12:36:41;5.97;;;4.10;;
11807;SDS011;5961;42.640;23.380;2023-08-01T12:39:08;5.85;;;4.07;;
11807;SDS011;5961;42.640;23.380;2023-08-01T12:41:36;5.50;;;5.00;;
11807;SDS011;5961;42.640;23.380;2023-08-01T12:44:03;6.75;;;4.35;;
11807;SDS011;5961;42.640;23.380;2023-08-01T12:46:31;4.70;;;4.25;;
11807;SDS011;5961;42.640;23.380;2023-08-01T12:48:58;6.97;;;4.20;;
11807;SDS011;5961;42.640;23.380;2023-08-01T12:51:25;4.25;;;3.85;;
11807;SDS011;5961;42.640;23.380;2023-08-01T12:53:52;7.65;;;4.35;;
11807;SDS011;5961;42.640;23.380;2023-08-01T12:56:18;6.22;;;4.35;;
11807;SDS011;5961;42.640;23.380;2023-08-01T12:58:45;7.13;;;4.65;;
11807;SDS011;5961;42.640;23.380;2023-08-01T13:01:12;5.70;;;4.20;;
11807;SDS011;5961;42.640;23.380;2023-08-01T13:03:40;6.32;;;4.10;;
11807;SDS011;5961;42.640;23.380;2023-08-01T13:06:09;8.18;;;6.47;;
11807;SDS011;5961;42.640;23.380;2023-08-01T13:08:36;6.07;;;3.80;;
11807;SDS011;5961;42.640;23.380;2023-08-01T13:11:09;8.57;;;4.88;;
11807;SDS011;5961;42.640;23.380;2023-08-01T13:13:36;4.93;;;4.28;;
11807;SDS011;5961;42.640;23.380;2023-08-01T13:16:03;6.15;;;4.57;;
11807;SDS011;5961;42.640;23.380;2023-08-01T13:18:29;6.45;;;4.30;;
11807;SDS011;5961;42.640;23.380;2023-08-01T13:20:58;6.95;;;4.00;;
11807;SDS011;5961;42.640;23.380;2023-08-01T13:23:24;4.32;;;3.80;;
11807;SDS011;5961;42.640;23.380;2023-08-01T13:25:51;4.18;;;3.78;;
11807;SDS011;5961;42.640;23.380;2023-08-01T13:28:18;4.18;;;3.70;;
11807;SDS011;5961;42.640;23.380;2023-08-01T13:30:45;4.00;;;3.58;;
11807;SDS011;5961;42.640;23.380;2023-08-01T13:33:11;5.43;;;4.38;;
11807;SDS011;5961;42.640;23.380;2023-08-01T13:35:38;7.35;;;4.32;;
11807;SDS011;5961;42.640;23.380;2023-08-01T13:38:06;5.57;;;3.92;;
11807;SDS011;5961;42.640;23.380;2023-08-01T13:40:33;3.95;;;3.55;;
11807;SDS011;5961;42.640;23.380;2023-08-01T13:43:00;3.97;;;3.67;;
11807;SDS011;5961;42.640;23.380;2023-08-01T13:45:29;7.55;;;3.45;;
11807;SDS011;5961;42.640;23.380;2023-08-01T13:47:56;4.18;;;3.70;;
11807;SDS011;5961;42.640;23.380;2023-08-01T13:50:24;3.85;;;3.55;;
11807;SDS011;5961;42.640;23.380;2023-08-01T13:52:52;6.40;;;3.88;;
11807;SDS011;5961;42.640;23.380;2023-08-01T13:55:20;6.95;;;3.90;;
11807;SDS011;5961;42.640;23.380;2023-08-01T13:57:46;3.53;;;3.20;;
11807;SDS011;5961;42.640;23.380;2023-08-01T14:00:13;10.27;;;3.60;;
11807;SDS011;5961;42.640;23.380;2023-08-01T14:02:40;5.20;;;3.55;;
11807;SDS011;5961;42.640;23.380;2023-08-01T14:05:07;4.53;;;3.00;;
11807;SDS011;5961;42.640;23.380;2023-08-01T14:07:34;3.80;;;3.15;;
11807;SDS011;5961;42.640;23.380;2023-08-01T14:10:02;4.30;;;3.45;;
11807;SDS011;5961;42.640;23.380;2023-08-01T14:12:31;4.03;;;3.50;;
11807;SDS011;5961;42.640;23.380;2023-08-01T14:14:57;4.80;;;3.45;;
11807;SDS011;5961;42.640;23.380;2023-08-01T14:17:24;5.13;;;3.80;;
11807;SDS011;5961;42.640;23.380;2023-08-01T14:19:51;7.00;;;3.63;;
11807;SDS011;5961;42.640;23.380;2023-08-01T14:22:18;4.32;;;3.25;;
11807;SDS011;5961;42.640;23.380;2023-08-01T14:24:44;8.15;;;3.80;;
11807;SDS011;5961;42.640;23.380;2023-08-01T14:27:11;5.75;;;3.88;;
11807;SDS011;5961;42.640;23.380;2023-08-01T14:29:39;5.78;;;3.72;;
11807;SDS011;5961;42.640;23.380;2023-08-01T14:32:06;3.78;;;3.45;;
11807;SDS011;5961;42.640;23.380;2023-08-01T14:34:33;4.00;;;3.70;;
11807;SDS011;5961;42.640;23.380;2023-08-01T14:37:00;5.88;;;3.33;;
11807;SDS011;5961;42.640;23.380;2023-08-01T14:39:27;3.72;;;3.38;;
11807;SDS011;5961;42.640;23.380;2023-08-01T14:41:53;5.28;;;3.78;;
11807;SDS011;5961;42.640;23.380;2023-08-01T14:44:20;3.70;;;3.40;;
11807;SDS011;5961;42.640;23.380;2023-08-01T14:46:48;6.75;;;4.07;;
11807;SDS011;5961;42.640;23.380;2023-08-01T14:49:15;6.38;;;4.28;;